sensor_id;sensor_type;location;lat;lon;timestamp;P1;durP1;ratioP1;P2;durP2;ratioP2
9986;SDS011;5033;46.310;11.214;2023-06-05T00:00:34;2.90;;;2.70;;
9986;SDS011;5033;46.310;11.214;2023-06-05T00:03:01;2.50;;;2.30;;
9986;SDS011;5033;46.310;11.214;2023-06-05T00:05:28;3.13;;;2.92;;
9986;SDS011;5033;46.310;11.214;2023-06-05T00:07:56;3.05;;;2.85;;
9986;SDS011;5033;46.310;11.214;2023-06-05T00:10:23;2.65;;;2.50;;
9986;SDS011;5033;46.310;11.214;2023-06-05T00:12:50;3.00;;;2.80;;
9986;SDS011;5033;46.310;11.214;2023-06-05T00:15:19;3.25;;;2.95;;
9986;SDS011;5033;46.310;11.214;2023-06-05T00:17:46;2.83;;;2.63;;
9986;SDS011;5033;46.310;11.214;2023-06-05T00:20:13;3.30;;;3.10;;
9986;SDS011;5033;46.310;11.214;2023-06-05T00:22:40;3.05;;;2.85;;
9986;SDS011;5033;46.310;11.214;2023-06-05T00:25:09;2.70;;;2.50;;
9986;SDS011;5033;46.310;11.214;2023-06-05T00:27:36;3.03;;;2.83;;
9986;SDS011;5033;46.310;11.214;2023-06-05T00:30:06;2.60;;;2.40;;
9986;SDS011;5033;46.310;11.214;2023-06-05T00:32:36;2.80;;;2.60;;
9986;SDS011;5033;46.310;11.214;2023-06-05T00:35:03;3.13;;;2.92;;
9986;SDS011;5033;46.310;11.214;2023-06-05T00:37:31;2.72;;;2.53;;
9986;SDS011;5033;46.310;11.214;2023-06-05T00:39:59;2.75;;;2.58;;
9986;SDS011;5033;46.310;11.214;2023-06-05T00:42:26;3.38;;;2.97;;
9986;SDS011;5033;46.310;11.214;2023-06-05T00:44:53;3.08;;;2.88;;
9986;SDS011;5033;46.310;11.214;2023-06-05T00:47:20;30.70;;;3.90;;
9986;SDS011;5033;46.310;11.214;2023-06-05T00:49:50;42.03;;;5.03;;
9986;SDS011;5033;46.310;11.214;2023-06-05T00:52:17;3.28;;;3.08;;
9986;SDS011;5033;46.310;11.214;2023-06-05T00:54:44;3.22;;;3.03;;
9986;SDS011;5033;46.310;11.214;2023-06-05T00:57:11;3.10;;;2.80;;
9986;SDS011;5033;46.310;11.214;2023-06-05T00:59:39;3.10;;;2.90;;
9986;SDS011;5033;46.310;11.214;2023-06-05T01:02:09;3.00;;;2.80;;
9986;SDS011;5033;46.310;11.214;2023-06-05T01:04:38;3.40;;;3.20;;
9986;SDS011;5033;46.310;11.214;2023-06-05T01:07:07;3.58;;;3.30;;
9986;SDS011;5033;46.310;11.214;2023-06-05T01:09:34;3.05;;;2.85;;
9986;SDS011;5033;46.310;11.214;2023-06-05T01:12:03;3.20;;;3.00;;
9986;SDS011;5033;46.310;11.214;2023-06-05T01:14:35;3.40;;;3.20;;
9986;SDS011;5033;46.310;11.214;2023-06-05T01:17:10;3.17;;;2.97;;
9986;SDS011;5033;46.310;11.214;2023-06-05T01:19:38;3.20;;;3.00;;
9986;SDS011;5033;46.310;11.214;2023-06-05T01:22:07;3.08;;;2.88;;
9986;SDS011;5033;46.310;11.214;2023-06-05T01:24:35;3.25;;;3.05;;
9986;SDS011;5033;46.310;11.214;2023-06-05T01:27:06;3.10;;;2.90;;
9986;SDS011;5033;46.310;11.214;2023-06-05T01:29:42;3.30;;;3.10;;
9986;SDS011;5033;46.310;11.214;2023-06-05T01:32:21;2.72;;;2.63;;
9986;SDS011;5033;46.310;11.214;2023-06-05T01:34:51;3.10;;;2.90;;
9986;SDS011;5033;46.310;11.214;2023-06-05T01:37:20;3.28;;;2.97;;
9986;SDS011;5033;46.310;11.214;2023-06-05T01:39:51;2.83;;;2.63;;
9986;SDS011;5033;46.310;11.214;2023-06-05T01:42:21;3.08;;;2.78;;
9986;SDS011;5033;46.310;11.214;2023-06-05T01:44:50;3.45;;;3.17;;
9986;SDS011;5033;46.310;11.214;2023-06-05T01:47:18;3.22;;;3.03;;
9986;SDS011;5033;46.310;11.214;2023-06-05T01:49:47;3.10;;;2.90;;
9986;SDS011;5033;46.310;11.214;2023-06-05T01:52:14;3.10;;;2.90;;
9986;SDS011;5033;46.310;11.214;2023-06-05T01:54:41;3.00;;;2.80;;
9986;SDS011;5033;46.310;11.214;2023-06-05T01:57:12;2.72;;;2.53;;
9986;SDS011;5033;46.310;11.214;2023-06-05T01:59:40;4.45;;;2.65;;
9986;SDS011;5033;46.310;11.214;2023-06-05T02:02:08;2.90;;;2.70;;
9986;SDS011;5033;46.310;11.214;2023-06-05T02:04:36;2.70;;;2.50;;
9986;SDS011;5033;46.310;11.214;2023-06-05T02:07:04;2.92;;;2.72;;
9986;SDS011;5033;46.310;11.214;2023-06-05T02:09:32;2.80;;;2.60;;
9986;SDS011;5033;46.310;11.214;2023-06-05T02:11:59;3.35;;;3.15;;
9986;SDS011;5033;46.310;11.214;2023-06-05T02:14:32;2.88;;;2.67;;
9986;SDS011;5033;46.310;11.214;2023-06-05T02:17:02;2.83;;;2.67;;
9986;SDS011;5033;46.310;11.214;2023-06-05T02:19:31;3.00;;;2.80;;
9986;SDS011;5033;46.310;11.214;2023-06-05T02:21:58;3.22;;;3.03;;
9986;SDS011;5033;46.310;11.214;2023-06-05T02:24:25;3.33;;;3.13;;
9986;SDS011;5033;46.310;11.214;2023-06-05T02:26:52;3.15;;;2.95;;
9986;SDS011;5033;46.310;11.214;2023-06-05T02:29:19;2.97;;;2.78;;
9986;SDS011;5033;46.310;11.214;2023-06-05T02:31:48;2.40;;;2.20;;
9986;SDS011;5033;46.310;11.214;2023-06-05T02:34:15;2.65;;;2.45;;
9986;SDS011;5033;46.310;11.214;2023-06-05T02:36:43;2.63;;;2.47;;
9986;SDS011;5033;46.310;11.214;2023-06-05T02:39:10;2.17;;;1.98;;
9986;SDS011;5033;46.310;11.214;2023-06-05T02:41:38;2.53;;;2.33;;
9986;SDS011;5033;46.310;11.214;2023-06-05T02:44:05;2.05;;;1.95;;
9986;SDS011;5033;46.310;11.214;2023-06-05T02:46:32;2.10;;;2.00;;
9986;SDS011;5033;46.310;11.214;2023-06-05T02:49:00;2.45;;;2.35;;
9986;SDS011;5033;46.310;11.214;2023-06-05T02:51:27;2.53;;;2.22;;
9986;SDS011;5033;46.310;11.214;2023-06-05T02:53:54;2.10;;;2.00;;
9986;SDS011;5033;46.310;11.214;2023-06-05T02:56:22;2.30;;;2.20;;
9986;SDS011;5033;46.310;11.214;2023-06-05T02:58:52;2.42;;;2.22;;
9986;SDS011;5033;46.310;11.214;2023-06-05T03:01:19;2.25;;;2.15;;
9986;SDS011;5033;46.310;11.214;2023-06-05T03:03:47;2.13;;;2.03;;
9986;SDS011;5033;46.310;11.214;2023-06-05T03:06:18;2.17;;;2.08;;
9986;SDS011;5033;46.310;11.214;2023-06-05T03:08:45;2.20;;;2.10;;
9986;SDS011;5033;46.310;11.214;2023-06-05T03:11:12;2.33;;;2.17;;
9986;SDS011;5033;46.310;11.214;2023-06-05T03:13:39;2.33;;;2.00;;
9986;SDS011;5033;46.310;11.214;2023-06-05T03:16:06;2.22;;;2.10;;
9986;SDS011;5033;46.310;11.214;2023-06-05T03:18:33;1.90;;;1.80;;
9986;SDS011;5033;46.310;11.214;2023-06-05T03:21:01;2.33;;;2.22;;
9986;SDS011;5033;46.310;11.214;2023-06-05T03:23:29;2.08;;;1.98;;
9986;SDS011;5033;46.310;11.214;2023-06-05T03:25:57;2.50;;;2.30;;
9986;SDS011;5033;46.310;11.214;2023-06-05T03:28:24;2.08;;;1.98;;
9986;SDS011;5033;46.310;11.214;2023-06-05T03:30:51;1.90;;;1.80;;
9986;SDS011;5033;46.310;11.214;2023-06-05T03:33:18;2.42;;;2.30;;
9986;SDS011;5033;46.310;11.214;2023-06-05T03:35:45;2.13;;;2.03;;
9986;SDS011;5033;46.310;11.214;2023-06-05T03:38:14;2.60;;;2.40;;
9986;SDS011;5033;46.310;11.214;2023-06-05T03:40:43;2.88;;;2.67;;
9986;SDS011;5033;46.310;11.214;2023-06-05T03:43:10;3.20;;;3.00;;
9986;SDS011;5033;46.310;11.214;2023-06-05T03:45:37;3.38;;;3.17;;
9986;SDS011;5033;46.310;11.214;2023-06-05T03:48:05;3.97;;;3.67;;
9986;SDS011;5033;46.310;11.214;2023-06-05T03:50:34;3.10;;;2.85;;
9986;SDS011;5033;46.310;11.214;2023-06-05T03:53:03;2.95;;;2.75;;
9986;SDS011;5033;46.310;11.214;2023-06-05T03:55:30;3.03;;;2.83;;
9986;SDS011;5033;46.310;11.214;2023-06-05T03:58:08;2.30;;;2.20;;
9986;SDS011;5033;46.310;11.214;2023-06-05T04:00:38;2.40;;;2.30;;
9986;SDS011;5033;46.310;11.214;2023-06-05T04:03:05;2.47;;;2.35;;
9986;SDS011;5033;46.310;11.214;2023-06-05T04:05:35;2.33;;;2.22;;
9986;SDS011;5033;46.310;11.214;2023-06-05T04:08:03;2.20;;;2.00;;
9986;SDS011;5033;46.310;11.214;2023-06-05T04:10:30;2.10;;;2.00;;
9986;SDS011;5033;46.310;11.214;2023-06-05T04:12:57;2.28;;;2.17;;
9986;SDS011;5033;46.310;11.214;2023-06-05T04:15:27;2.10;;;2.00;;
9986;SDS011;5033;46.310;11.214;2023-06-05T04:17:54;1.90;;;1.80;;
9986;SDS011;5033;46.310;11.214;2023-06-05T04:20:22;1.90;;;1.80;;
9986;SDS011;5033;46.310;11.214;2023-06-05T04:22:49;1.80;;;1.70;;
9986;SDS011;5033;46.310;11.214;2023-06-05T04:25:16;2.17;;;2.08;;
9986;SDS011;5033;46.310;11.214;2023-06-05T04:27:44;1.92;;;1.83;;
9986;SDS011;5033;46.310;11.214;2023-06-05T04:30:15;2.30;;;2.15;;
9986;SDS011;5033;46.310;11.214;2023-06-05T04:32:44;2.05;;;1.95;;
9986;SDS011;5033;46.310;11.214;2023-06-05T04:35:18;1.98;;;1.88;;
9986;SDS011;5033;46.310;11.214;2023-06-05T04:37:45;1.95;;;1.85;;
9986;SDS011;5033;46.310;11.214;2023-06-05T04:40:12;1.80;;;1.70;;
9986;SDS011;5033;46.310;11.214;2023-06-05T04:42:40;1.70;;;1.60;;
9986;SDS011;5033;46.310;11.214;2023-06-05T04:45:08;1.90;;;1.80;;
9986;SDS011;5033;46.310;11.214;2023-06-05T04:47:35;1.73;;;1.63;;
9986;SDS011;5033;46.310;11.214;2023-06-05T04:50:05;1.83;;;1.63;;
9986;SDS011;5033;46.310;11.214;2023-06-05T04:52:34;2.38;;;2.28;;
9986;SDS011;5033;46.310;11.214;2023-06-05T04:55:05;1.77;;;1.67;;
9986;SDS011;5033;46.310;11.214;2023-06-05T04:57:33;2.05;;;1.75;;
9986;SDS011;5033;46.310;11.214;2023-06-05T05:00:00;1.80;;;1.70;;
9986;SDS011;5033;46.310;11.214;2023-06-05T05:02:29;1.77;;;1.67;;
9986;SDS011;5033;46.310;11.214;2023-06-05T05:04:56;2.00;;;1.90;;
9986;SDS011;5033;46.310;11.214;2023-06-05T05:07:25;2.15;;;2.05;;
9986;SDS011;5033;46.310;11.214;2023-06-05T05:09:53;1.83;;;1.73;;
9986;SDS011;5033;46.310;11.214;2023-06-05T05:12:20;2.20;;;2.10;;
9986;SDS011;5033;46.310;11.214;2023-06-05T05:14:47;2.10;;;2.00;;
9986;SDS011;5033;46.310;11.214;2023-06-05T05:17:14;3.17;;;2.28;;
9986;SDS011;5033;46.310;11.214;2023-06-05T05:19:44;2.63;;;2.50;;
9986;SDS011;5033;46.310;11.214;2023-06-05T05:22:11;2.80;;;2.60;;
9986;SDS011;5033;46.310;11.214;2023-06-05T05:24:40;2.90;;;2.70;;
9986;SDS011;5033;46.310;11.214;2023-06-05T05:27:07;3.15;;;2.95;;
9986;SDS011;5033;46.310;11.214;2023-06-05T05:29:34;3.00;;;2.63;;
9986;SDS011;5033;46.310;11.214;2023-06-05T05:32:01;2.75;;;2.55;;
9986;SDS011;5033;46.310;11.214;2023-06-05T05:34:28;2.53;;;2.42;;
9986;SDS011;5033;46.310;11.214;2023-06-05T05:36:56;2.97;;;2.78;;
9986;SDS011;5033;46.310;11.214;2023-06-05T05:39:23;2.63;;;2.53;;
9986;SDS011;5033;46.310;11.214;2023-06-05T05:41:51;2.90;;;2.70;;
9986;SDS011;5033;46.310;11.214;2023-06-05T05:44:19;2.65;;;2.47;;
9986;SDS011;5033;46.310;11.214;2023-06-05T05:46:46;2.85;;;2.65;;
9986;SDS011;5033;46.310;11.214;2023-06-05T05:49:13;2.67;;;2.47;;
9986;SDS011;5033;46.310;11.214;2023-06-05T05:51:40;2.35;;;2.15;;
9986;SDS011;5033;46.310;11.214;2023-06-05T05:54:07;2.20;;;2.10;;
9986;SDS011;5033;46.310;11.214;2023-06-05T05:56:35;3.05;;;2.75;;
9986;SDS011;5033;46.310;11.214;2023-06-05T05:59:03;18.70;;;3.65;;
9986;SDS011;5033;46.310;11.214;2023-06-05T06:01:30;3.75;;;3.40;;
9986;SDS011;5033;46.310;11.214;2023-06-05T06:03:58;5.10;;;4.53;;
9986;SDS011;5033;46.310;11.214;2023-06-05T06:06:25;3.95;;;3.70;;
9986;SDS011;5033;46.310;11.214;2023-06-05T06:08:52;4.13;;;3.80;;
9986;SDS011;5033;46.310;11.214;2023-06-05T06:11:19;4.43;;;4.13;;
9986;SDS011;5033;46.310;11.214;2023-06-05T06:13:47;4.13;;;3.92;;
9986;SDS011;5033;46.310;11.214;2023-06-05T06:16:15;4.47;;;4.18;;
9986;SDS011;5033;46.310;11.214;2023-06-05T06:18:42;4.65;;;4.35;;
9986;SDS011;5033;46.310;11.214;2023-06-05T06:21:10;4.57;;;4.28;;
9986;SDS011;5033;46.310;11.214;2023-06-05T06:23:38;4.82;;;4.53;;
9986;SDS011;5033;46.310;11.214;2023-06-05T06:26:05;4.55;;;4.25;;
9986;SDS011;5033;46.310;11.214;2023-06-05T06:28:33;4.85;;;4.55;;
9986;SDS011;5033;46.310;11.214;2023-06-05T06:31:00;4.22;;;3.83;;
9986;SDS011;5033;46.310;11.214;2023-06-05T06:33:28;4.75;;;4.35;;
9986;SDS011;5033;46.310;11.214;2023-06-05T06:35:56;4.82;;;4.53;;
9986;SDS011;5033;46.310;11.214;2023-06-05T06:38:24;4.80;;;4.47;;
9986;SDS011;5033;46.310;11.214;2023-06-05T06:40:55;4.88;;;4.50;;
9986;SDS011;5033;46.310;11.214;2023-06-05T06:43:22;5.10;;;4.80;;
9986;SDS011;5033;46.310;11.214;2023-06-05T06:45:50;4.43;;;4.13;;
9986;SDS011;5033;46.310;11.214;2023-06-05T06:48:19;6.18;;;5.40;;
9986;SDS011;5033;46.310;11.214;2023-06-05T06:50:47;5.82;;;5.32;;
9986;SDS011;5033;46.310;11.214;2023-06-05T06:53:14;6.45;;;6.05;;
9986;SDS011;5033;46.310;11.214;2023-06-05T06:55:41;5.97;;;5.57;;
9986;SDS011;5033;46.310;11.214;2023-06-05T06:58:08;6.13;;;5.72;;
9986;SDS011;5033;46.310;11.214;2023-06-05T07:00:36;6.40;;;5.82;;
9986;SDS011;5033;46.310;11.214;2023-06-05T07:05:42;5.70;;;5.20;;
9986;SDS011;5033;46.310;11.214;2023-06-05T07:08:10;5.25;;;4.85;;
9986;SDS011;5033;46.310;11.214;2023-06-05T07:10:37;4.95;;;4.65;;
9986;SDS011;5033;46.310;11.214;2023-06-05T07:13:05;5.90;;;5.50;;
9986;SDS011;5033;46.310;11.214;2023-06-05T07:15:32;6.68;;;6.05;;
9986;SDS011;5033;46.310;11.214;2023-06-05T07:17:59;6.85;;;6.05;;
9986;SDS011;5033;46.310;11.214;2023-06-05T07:20:27;6.80;;;6.25;;
9986;SDS011;5033;46.310;11.214;2023-06-05T07:22:54;5.93;;;5.53;;
9986;SDS011;5033;46.310;11.214;2023-06-05T07:25:23;6.15;;;5.75;;
9986;SDS011;5033;46.310;11.214;2023-06-05T07:27:50;7.47;;;6.20;;
9986;SDS011;5033;46.310;11.214;2023-06-05T07:30:18;6.20;;;5.80;;
9986;SDS011;5033;46.310;11.214;2023-06-05T07:32:45;5.47;;;5.00;;
9986;SDS011;5033;46.310;11.214;2023-06-05T07:35:12;5.47;;;5.07;;
9986;SDS011;5033;46.310;11.214;2023-06-05T07:37:40;5.43;;;5.03;;
9986;SDS011;5033;46.310;11.214;2023-06-05T07:40:07;6.20;;;5.70;;
9986;SDS011;5033;46.310;11.214;2023-06-05T07:42:36;5.25;;;4.85;;
9986;SDS011;5033;46.310;11.214;2023-06-05T07:45:04;6.03;;;5.53;;
9986;SDS011;5033;46.310;11.214;2023-06-05T07:47:32;4.68;;;4.35;;
9986;SDS011;5033;46.310;11.214;2023-06-05T07:49:59;4.78;;;4.45;;
9986;SDS011;5033;46.310;11.214;2023-06-05T07:52:29;5.22;;;4.93;;
9986;SDS011;5033;46.310;11.214;2023-06-05T07:54:57;3.92;;;3.72;;
9986;SDS011;5033;46.310;11.214;2023-06-05T07:57:24;3.70;;;3.50;;
9986;SDS011;5033;46.310;11.214;2023-06-05T07:59:53;4.85;;;4.55;;
9986;SDS011;5033;46.310;11.214;2023-06-05T08:02:21;4.60;;;4.30;;
9986;SDS011;5033;46.310;11.214;2023-06-05T08:04:49;4.53;;;4.13;;
9986;SDS011;5033;46.310;11.214;2023-06-05T08:07:16;4.57;;;4.28;;
9986;SDS011;5033;46.310;11.214;2023-06-05T08:09:44;4.30;;;4.00;;
9986;SDS011;5033;46.310;11.214;2023-06-05T08:12:11;5.20;;;4.80;;
9986;SDS011;5033;46.310;11.214;2023-06-05T08:14:38;5.22;;;4.82;;
9986;SDS011;5033;46.310;11.214;2023-06-05T08:17:06;5.68;;;5.22;;
9986;SDS011;5033;46.310;11.214;2023-06-05T08:19:34;5.80;;;5.28;;
9986;SDS011;5033;46.310;11.214;2023-06-05T08:22:01;4.75;;;4.45;;
9986;SDS011;5033;46.310;11.214;2023-06-05T08:24:29;5.55;;;5.15;;
9986;SDS011;5033;46.310;11.214;2023-06-05T08:26:57;5.10;;;4.70;;
9986;SDS011;5033;46.310;11.214;2023-06-05T08:29:25;5.75;;;5.25;;
9986;SDS011;5033;46.310;11.214;2023-06-05T08:31:53;4.97;;;4.57;;
9986;SDS011;5033;46.310;11.214;2023-06-05T08:34:22;4.32;;;3.83;;
9986;SDS011;5033;46.310;11.214;2023-06-05T08:36:51;3.85;;;3.55;;
9986;SDS011;5033;46.310;11.214;2023-06-05T08:39:17;4.75;;;4.35;;
9986;SDS011;5033;46.310;11.214;2023-06-05T08:41:45;4.15;;;3.85;;
9986;SDS011;5033;46.310;11.214;2023-06-05T08:44:17;4.18;;;3.88;;
9986;SDS011;5033;46.310;11.214;2023-06-05T08:46:44;4.43;;;4.03;;
9986;SDS011;5033;46.310;11.214;2023-06-05T08:49:12;4.95;;;4.55;;
9986;SDS011;5033;46.310;11.214;2023-06-05T08:51:45;4.65;;;4.35;;
9986;SDS011;5033;46.310;11.214;2023-06-05T08:54:16;4.38;;;3.97;;
9986;SDS011;5033;46.310;11.214;2023-06-05T08:56:45;5.22;;;4.82;;
9986;SDS011;5033;46.310;11.214;2023-06-05T08:59:14;4.28;;;3.97;;
9986;SDS011;5033;46.310;11.214;2023-06-05T09:01:45;3.63;;;3.42;;
9986;SDS011;5033;46.310;11.214;2023-06-05T09:04:13;4.22;;;3.85;;
9986;SDS011;5033;46.310;11.214;2023-06-05T09:06:46;3.70;;;3.40;;
9986;SDS011;5033;46.310;11.214;2023-06-05T09:09:14;4.10;;;3.80;;
9986;SDS011;5033;46.310;11.214;2023-06-05T09:11:42;22.80;;;5.50;;
9986;SDS011;5033;46.310;11.214;2023-06-05T09:14:09;28.90;;;6.10;;
9986;SDS011;5033;46.310;11.214;2023-06-05T09:16:38;6.45;;;5.97;;
9986;SDS011;5033;46.310;11.214;2023-06-05T09:19:07;5.45;;;4.97;;
9986;SDS011;5033;46.310;11.214;2023-06-05T09:21:35;5.10;;;4.75;;
9986;SDS011;5033;46.310;11.214;2023-06-05T09:24:13;5.03;;;4.63;;
9986;SDS011;5033;46.310;11.214;2023-06-05T09:26:47;4.45;;;4.15;;
9986;SDS011;5033;46.310;11.214;2023-06-05T09:29:20;4.22;;;3.92;;
9986;SDS011;5033;46.310;11.214;2023-06-05T09:31:48;4.50;;;4.20;;
9986;SDS011;5033;46.310;11.214;2023-06-05T09:34:26;5.30;;;4.65;;
9986;SDS011;5033;46.310;11.214;2023-06-05T09:36:55;4.65;;;4.35;;
9986;SDS011;5033;46.310;11.214;2023-06-05T09:39:24;4.30;;;4.00;;
9986;SDS011;5033;46.310;11.214;2023-06-05T09:41:52;4.13;;;3.83;;
9986;SDS011;5033;46.310;11.214;2023-06-05T09:44:20;4.22;;;3.92;;
9986;SDS011;5033;46.310;11.214;2023-06-05T09:46:51;4.50;;;4.05;;
9986;SDS011;5033;46.310;11.214;2023-06-05T09:49:24;4.45;;;4.15;;
9986;SDS011;5033;46.310;11.214;2023-06-05T09:51:53;3.97;;;3.67;;
9986;SDS011;5033;46.310;11.214;2023-06-05T09:54:23;3.88;;;3.58;;
9986;SDS011;5033;46.310;11.214;2023-06-05T09:56:55;3.20;;;3.00;;
9986;SDS011;5033;46.310;11.214;2023-06-05T09:59:25;3.25;;;2.95;;
9986;SDS011;5033;46.310;11.214;2023-06-05T10:01:55;3.10;;;2.90;;
9986;SDS011;5033;46.310;11.214;2023-06-05T10:04:23;2.90;;;2.70;;
9986;SDS011;5033;46.310;11.214;2023-06-05T10:06:52;3.22;;;3.03;;
9986;SDS011;5033;46.310;11.214;2023-06-05T10:09:25;3.30;;;3.10;;
9986;SDS011;5033;46.310;11.214;2023-06-05T10:11:52;3.38;;;3.17;;
9986;SDS011;5033;46.310;11.214;2023-06-05T10:14:20;3.92;;;3.63;;
9986;SDS011;5033;46.310;11.214;2023-06-05T10:16:48;3.13;;;2.90;;
9986;SDS011;5033;46.310;11.214;2023-06-05T10:19:17;3.38;;;3.08;;
9986;SDS011;5033;46.310;11.214;2023-06-05T10:21:46;3.22;;;3.03;;
9986;SDS011;5033;46.310;11.214;2023-06-05T10:24:14;3.63;;;3.33;;
9986;SDS011;5033;46.310;11.214;2023-06-05T10:30:04;4.40;;;3.15;;
9986;SDS011;5033;46.310;11.214;2023-06-05T10:32:55;4.15;;;3.75;;
9986;SDS011;5033;46.310;11.214;2023-06-05T10:35:38;3.83;;;3.53;;
9986;SDS011;5033;46.310;11.214;2023-06-05T10:38:15;4.05;;;3.75;;
9986;SDS011;5033;46.310;11.214;2023-06-05T10:40:44;3.42;;;3.20;;
9986;SDS011;5033;46.310;11.214;2023-06-05T10:43:26;3.75;;;3.45;;
9986;SDS011;5033;46.310;11.214;2023-06-05T10:45:54;4.22;;;3.92;;
9986;SDS011;5033;46.310;11.214;2023-06-05T10:48:31;4.25;;;3.95;;
9986;SDS011;5033;46.310;11.214;2023-06-05T10:51:38;3.92;;;3.63;;
9986;SDS011;5033;46.310;11.214;2023-06-05T10:54:07;3.72;;;3.53;;
9986;SDS011;5033;46.310;11.214;2023-06-05T10:56:54;4.05;;;3.75;;
9986;SDS011;5033;46.310;11.214;2023-06-05T10:59:26;4.20;;;3.90;;
9986;SDS011;5033;46.310;11.214;2023-06-05T11:07:33;4.03;;;3.72;;
9986;SDS011;5033;46.310;11.214;2023-06-05T11:10:04;3.92;;;3.63;;
9986;SDS011;5033;46.310;11.214;2023-06-05T11:12:56;3.80;;;3.50;;
9986;SDS011;5033;46.310;11.214;2023-06-05T11:15:36;3.60;;;3.30;;
9986;SDS011;5033;46.310;11.214;2023-06-05T11:20:59;3.83;;;3.55;;
9986;SDS011;5033;46.310;11.214;2023-06-05T11:23:27;4.00;;;3.70;;
9986;SDS011;5033;46.310;11.214;2023-06-05T11:25:58;4.65;;;4.35;;
9986;SDS011;5033;46.310;11.214;2023-06-05T11:29:09;4.70;;;4.30;;
9986;SDS011;5033;46.310;11.214;2023-06-05T11:31:42;4.22;;;3.92;;
9986;SDS011;5033;46.310;11.214;2023-06-05T11:34:11;4.40;;;4.10;;
9986;SDS011;5033;46.310;11.214;2023-06-05T11:36:39;4.57;;;4.18;;
9986;SDS011;5033;46.310;11.214;2023-06-05T11:39:06;4.32;;;4.03;;
9986;SDS011;5033;46.310;11.214;2023-06-05T11:41:37;4.32;;;4.03;;
9986;SDS011;5033;46.310;11.214;2023-06-05T11:44:09;3.03;;;2.83;;
9986;SDS011;5033;46.310;11.214;2023-06-05T11:46:37;3.28;;;3.08;;
9986;SDS011;5033;46.310;11.214;2023-06-05T11:49:05;2.88;;;2.67;;
9986;SDS011;5033;46.310;11.214;2023-06-05T11:51:32;2.85;;;2.65;;
9986;SDS011;5033;46.310;11.214;2023-06-05T11:54:00;2.65;;;2.28;;
9986;SDS011;5033;46.310;11.214;2023-06-05T11:56:27;3.25;;;3.05;;
9986;SDS011;5033;46.310;11.214;2023-06-05T11:58:55;2.85;;;2.65;;
9986;SDS011;5033;46.310;11.214;2023-06-05T12:01:22;2.90;;;2.70;;
9986;SDS011;5033;46.310;11.214;2023-06-05T12:04:01;2.53;;;2.42;;
9986;SDS011;5033;46.310;11.214;2023-06-05T12:06:31;2.65;;;2.45;;
9986;SDS011;5033;46.310;11.214;2023-06-05T12:09:08;2.50;;;2.30;;
9986;SDS011;5033;46.310;11.214;2023-06-05T12:11:36;2.95;;;2.78;;
9986;SDS011;5033;46.310;11.214;2023-06-05T12:14:04;3.67;;;3.47;;
9986;SDS011;5033;46.310;11.214;2023-06-05T12:16:31;3.90;;;3.60;;
9986;SDS011;5033;46.310;11.214;2023-06-05T12:19:00;3.50;;;3.30;;
9986;SDS011;5033;46.310;11.214;2023-06-05T12:21:27;2.97;;;2.78;;
9986;SDS011;5033;46.310;11.214;2023-06-05T12:24:02;2.95;;;2.75;;
9986;SDS011;5033;46.310;11.214;2023-06-05T12:26:30;2.60;;;2.40;;
9986;SDS011;5033;46.310;11.214;2023-06-05T12:29:13;2.53;;;2.33;;
9986;SDS011;5033;46.310;11.214;2023-06-05T12:31:41;2.33;;;2.13;;
9986;SDS011;5033;46.310;11.214;2023-06-05T12:34:08;2.00;;;1.90;;
9986;SDS011;5033;46.310;11.214;2023-06-05T12:36:38;2.00;;;1.90;;
9986;SDS011;5033;46.310;11.214;2023-06-05T12:39:10;2.30;;;2.20;;
9986;SDS011;5033;46.310;11.214;2023-06-05T12:41:38;2.10;;;2.00;;
9986;SDS011;5033;46.310;11.214;2023-06-05T12:44:05;2.42;;;2.33;;
9986;SDS011;5033;46.310;11.214;2023-06-05T12:46:33;2.15;;;2.05;;
9986;SDS011;5033;46.310;11.214;2023-06-05T12:49:00;2.20;;;2.10;;
9986;SDS011;5033;46.310;11.214;2023-06-05T12:51:28;2.13;;;2.03;;
9986;SDS011;5033;46.310;11.214;2023-06-05T12:53:56;1.85;;;1.67;;
9986;SDS011;5033;46.310;11.214;2023-06-05T12:56:24;2.22;;;2.05;;
9986;SDS011;5033;46.310;11.214;2023-06-05T12:58:53;2.30;;;2.20;;
9986;SDS011;5033;46.310;11.214;2023-06-05T13:01:21;2.17;;;2.08;;
9986;SDS011;5033;46.310;11.214;2023-06-05T13:03:50;2.00;;;1.90;;
9986;SDS011;5033;46.310;11.214;2023-06-05T13:06:17;2.40;;;2.30;;
9986;SDS011;5033;46.310;11.214;2023-06-05T13:08:45;2.35;;;2.25;;
9986;SDS011;5033;46.310;11.214;2023-06-05T13:11:13;3.13;;;2.47;;
9986;SDS011;5033;46.310;11.214;2023-06-05T13:13:41;2.47;;;2.28;;
9986;SDS011;5033;46.310;11.214;2023-06-05T13:16:09;2.75;;;1.88;;
9986;SDS011;5033;46.310;11.214;2023-06-05T13:18:37;2.17;;;2.00;;
9986;SDS011;5033;46.310;11.214;2023-06-05T13:21:04;1.85;;;1.75;;
9986;SDS011;5033;46.310;11.214;2023-06-05T13:23:31;1.90;;;1.80;;
9986;SDS011;5033;46.310;11.214;2023-06-05T13:25:59;2.33;;;2.22;;
9986;SDS011;5033;46.310;11.214;2023-06-05T13:28:27;1.95;;;1.85;;
9986;SDS011;5033;46.310;11.214;2023-06-05T13:30:56;2.40;;;2.03;;
9986;SDS011;5033;46.310;11.214;2023-06-05T13:33:23;1.80;;;1.70;;
9986;SDS011;5033;46.310;11.214;2023-06-05T13:35:51;1.75;;;1.65;;
9986;SDS011;5033;46.310;11.214;2023-06-05T13:38:19;2.20;;;2.10;;
9986;SDS011;5033;46.310;11.214;2023-06-05T13:40:46;2.20;;;2.10;;
9986;SDS011;5033;46.310;11.214;2023-06-05T13:43:14;2.00;;;1.90;;
9986;SDS011;5033;46.310;11.214;2023-06-05T13:45:41;3.15;;;2.28;;
9986;SDS011;5033;46.310;11.214;2023-06-05T13:48:09;2.58;;;2.38;;
9986;SDS011;5033;46.310;11.214;2023-06-05T13:50:36;2.20;;;2.10;;
9986;SDS011;5033;46.310;11.214;2023-06-05T13:53:03;2.15;;;2.00;;
9986;SDS011;5033;46.310;11.214;2023-06-05T13:55:30;1.92;;;1.83;;
9986;SDS011;5033;46.310;11.214;2023-06-05T13:57:57;2.10;;;2.00;;
9986;SDS011;5033;46.310;11.214;2023-06-05T14:00:27;2.35;;;2.25;;
9986;SDS011;5033;46.310;11.214;2023-06-05T14:02:54;2.10;;;2.00;;
9986;SDS011;5033;46.310;11.214;2023-06-05T14:05:23;2.33;;;2.22;;
9986;SDS011;5033;46.310;11.214;2023-06-05T14:07:50;2.78;;;2.58;;
9986;SDS011;5033;46.310;11.214;2023-06-05T14:10:19;2.33;;;2.20;;
9986;SDS011;5033;46.310;11.214;2023-06-05T14:12:47;2.30;;;2.20;;
9986;SDS011;5033;46.310;11.214;2023-06-05T14:15:14;2.60;;;2.40;;
9986;SDS011;5033;46.310;11.214;2023-06-05T14:17:42;2.58;;;2.38;;
9986;SDS011;5033;46.310;11.214;2023-06-05T14:20:09;2.47;;;2.17;;
9986;SDS011;5033;46.310;11.214;2023-06-05T14:22:39;2.35;;;2.22;;
9986;SDS011;5033;46.310;11.214;2023-06-05T14:25:06;2.17;;;2.05;;
9986;SDS011;5033;46.310;11.214;2023-06-05T14:27:35;2.55;;;2.10;;
9986;SDS011;5033;46.310;11.214;2023-06-05T14:30:02;1.90;;;1.80;;
9986;SDS011;5033;46.310;11.214;2023-06-05T14:32:30;2.03;;;1.92;;
9986;SDS011;5033;46.310;11.214;2023-06-05T14:34:57;2.10;;;2.00;;
9986;SDS011;5033;46.310;11.214;2023-06-05T14:37:23;1.92;;;1.83;;
9986;SDS011;5033;46.310;11.214;2023-06-05T14:39:52;2.03;;;1.92;;
9986;SDS011;5033;46.310;11.214;2023-06-05T14:42:19;2.75;;;2.20;;
9986;SDS011;5033;46.310;11.214;2023-06-05T14:44:48;1.70;;;1.60;;
9986;SDS011;5033;46.310;11.214;2023-06-05T14:47:15;2.00;;;1.90;;
9986;SDS011;5033;46.310;11.214;2023-06-05T14:49:42;3.05;;;2.20;;
9986;SDS011;5033;46.310;11.214;2023-06-05T14:52:09;3.10;;;2.00;;
9986;SDS011;5033;46.310;11.214;2023-06-05T14:54:36;2.25;;;2.15;;
9986;SDS011;5033;46.310;11.214;2023-06-05T14:57:04;2.80;;;2.60;;
9986;SDS011;5033;46.310;11.214;2023-06-05T14:59:32;2.95;;;2.75;;
9986;SDS011;5033;46.310;11.214;2023-06-05T15:01:59;2.42;;;2.33;;
9986;SDS011;5033;46.310;11.214;2023-06-05T15:04:26;2.40;;;2.30;;
9986;SDS011;5033;46.310;11.214;2023-06-05T15:06:54;2.58;;;2.38;;
9986;SDS011;5033;46.310;11.214;2023-06-05T15:09:21;2.40;;;2.30;;
9986;SDS011;5033;46.310;11.214;2023-06-05T15:11:48;2.33;;;2.13;;
9986;SDS011;5033;46.310;11.214;2023-06-05T15:14:17;3.28;;;2.03;;
9986;SDS011;5033;46.310;11.214;2023-06-05T15:16:44;2.35;;;2.17;;
9986;SDS011;5033;46.310;11.214;2023-06-05T15:19:12;2.10;;;2.00;;
9986;SDS011;5033;46.310;11.214;2023-06-05T15:21:39;2.25;;;2.15;;
9986;SDS011;5033;46.310;11.214;2023-06-05T15:24:06;2.45;;;2.25;;